Time;durP1;ratioP1;P1;durP2;ratioP2;P2;SDS_P1;SDS_P2;PMS_P1;PMS_P2;Temp;Humidity;BMP_temperature;BMP_pressure;BME280_temperature;BME280_humidity;BME280_pressure;Samples;Min_cycle;Max_cycle;Signal;HPM_P1;HPM_P2
2023/07/09 00:00:02;;;;;;;3.15;2.42;;;21.70;99.90;;;;;;5025755;28;20076;-78
2023/07/09 00:02:28;;;;;;;5.50;3.05;;;21.60;99.90;;;;;;5013762;28;20521;-79
2023/07/09 00:04:53;;;;;;;3.78;3.25;;;21.60;99.90;;;;;;5021570;28;20025;-78
2023/07/09 00:07:29;;;;;;;4.82;3.42;;;21.40;99.90;;;;;;5017257;28;20030;-79
2023/07/09 00:09:55;;;;;;;4.15;3.28;;;21.50;99.90;;;;;;5034375;28;20034;-79
2023/07/09 00:12:22;;;;;;;5.50;3.20;;;21.40;99.90;;;;;;5015813;28;20471;-78
2023/07/09 00:14:48;;;;;;;4.43;3.35;;;21.40;99.90;;;;;;5009020;28;20371;-79
2023/07/09 00:17:33;;;;;;;5.65;3.30;;;21.30;99.90;;;;;;5018822;28;20033;-79
2023/07/09 00:19:59;;;;;;;5.43;2.42;;;21.30;99.90;;;;;;5012680;28;20040;-78
2023/07/09 00:22:26;;;;;;;6.57;3.60;;;21.30;99.90;;;;;;5023411;28;20030;-78
2023/07/09 00:24:56;;;;;;;5.07;3.05;;;21.20;99.90;;;;;;5019488;28;20030;-78
2023/07/09 00:27:25;;;;;;;5.03;3.83;;;21.20;99.90;;;;;;5002910;28;20097;-78
2023/07/09 00:29:52;;;;;;;4.95;3.45;;;21.20;99.90;;;;;;5000944;28;20035;-78
2023/07/09 00:32:24;;;;;;;7.93;4.28;;;21.20;99.90;;;;;;5026060;28;20030;-78
2023/07/09 00:34:52;;;;;;;5.88;3.92;;;21.10;99.90;;;;;;5016277;28;20036;-78
2023/07/09 00:37:21;;;;;;;4.35;2.95;;;21.10;99.90;;;;;;5020621;28;20071;-78
2023/07/09 00:39:48;;;;;;;4.82;3.40;;;21.10;99.90;;;;;;5013267;28;20033;-78
2023/07/09 00:42:19;;;;;;;4.68;3.28;;;21.00;99.90;;;;;;5019792;28;20029;-78
2023/07/09 00:44:47;;;;;;;6.05;3.47;;;21.10;99.90;;;;;;5017264;28;20036;-78
2023/07/09 00:47:25;;;;;;;5.22;3.72;;;21.10;99.90;;;;;;5021138;28;20099;-78
2023/07/09 00:50:03;;;;;;;3.97;3.40;;;21.10;99.90;;;;;;5001492;28;20482;-79
2023/07/09 00:52:35;;;;;;;4.75;3.25;;;21.10;99.90;;;;;;5015564;28;20072;-78
2023/07/09 00:55:14;;;;;;;4.72;3.03;;;21.20;99.90;;;;;;5017172;28;20041;-78
2023/07/09 00:57:42;;;;;;;4.85;2.55;;;21.20;99.90;;;;;;5007857;28;20039;-78
2023/07/09 01:00:14;;;;;;;4.53;3.53;;;21.20;99.90;;;;;;5002945;28;20042;-79
2023/07/09 01:02:44;;;;;;;5.30;3.47;;;21.10;99.90;;;;;;5018898;28;20462;-79
2023/07/09 01:05:13;;;;;;;5.53;3.60;;;21.10;99.90;;;;;;4998245;28;20037;-79
2023/07/09 01:07:39;;;;;;;5.72;3.58;;;21.10;99.90;;;;;;5017838;28;20021;-79
2023/07/09 01:10:06;;;;;;;6.22;4.07;;;21.10;99.90;;;;;;5018630;28;20117;-78
2023/07/09 01:12:32;;;;;;;4.70;3.53;;;21.10;99.90;;;;;;5019105;28;20059;-78
2023/07/09 01:14:59;;;;;;;7.18;4.43;;;21.10;99.90;;;;;;5019079;28;20021;-78
2023/07/09 01:17:29;;;;;;;5.78;4.13;;;21.10;99.90;;;;;;5019713;28;20022;-79
2023/07/09 01:19:56;;;;;;;5.60;4.45;;;21.00;99.90;;;;;;5008669;28;20038;-79
2023/07/09 01:22:23;;;;;;;5.53;4.60;;;20.90;99.90;;;;;;5016439;28;20026;-78
2023/07/09 01:24:54;;;;;;;7.03;4.22;;;20.80;99.90;;;;;;5020939;28;20083;-78
2023/07/09 01:27:24;;;;;;;7.18;4.70;;;20.80;99.90;;;;;;5023271;28;20025;-78
2023/07/09 01:29:50;;;;;;;;;;;20.70;99.90;;;;;;5001748;28;20029;-78
2023/07/09 01:32:19;;;;;;;5.03;3.45;;;20.70;99.90;;;;;;5017134;28;20328;-78
2023/07/09 01:34:47;;;;;;;;;;;20.70;99.90;;;;;;5021751;28;20022;-78
2023/07/09 01:37:14;;;;;;;4.90;3.50;;;20.80;99.90;;;;;;5017605;28;19917;-78
2023/07/09 01:39:40;;;;;;;4.90;3.83;;;20.60;99.90;;;;;;5017197;28;20054;-78
2023/07/09 01:42:07;;;;;;;6.18;4.07;;;20.60;99.90;;;;;;5015546;28;20076;-78
2023/07/09 01:44:35;;;;;;;5.13;3.40;;;20.70;99.90;;;;;;5015261;28;20113;-78
2023/07/09 01:47:04;;;;;;;4.95;3.28;;;20.80;99.90;;;;;;5013647;28;20029;-78
2023/07/09 01:49:32;;;;;;;4.03;3.08;;;20.80;99.90;;;;;;5015178;28;20034;-79
2023/07/09 01:52:02;;;;;;;5.85;3.80;;;20.80;99.90;;;;;;5001827;28;20025;-76
2023/07/09 01:54:30;;;;;;;4.57;2.95;;;20.70;99.90;;;;;;5014063;28;20017;-78
2023/07/09 01:57:25;;;;;;;5.03;3.38;;;20.70;99.90;;;;;;5025898;28;20363;-78
2023/07/09 01:59:57;;;;;;;7.97;3.60;;;20.60;99.90;;;;;;5016157;28;20033;-78
2023/07/09 02:02:23;;;;;;;5.00;3.30;;;20.60;99.90;;;;;;5024830;28;20431;-78
2023/07/09 02:04:50;;;;;;;4.72;3.00;;;20.60;99.90;;;;;;5017642;28;20060;-78
2023/07/09 02:07:17;;;;;;;5.75;3.97;;;20.60;99.90;;;;;;5020809;28;20021;-78
2023/07/09 02:09:43;;;;;;;4.90;2.75;;;20.60;99.90;;;;;;5024353;28;20064;-78
2023/07/09 02:12:11;;;;;;;3.72;2.83;;;20.50;99.90;;;;;;5027789;28;20033;-78
2023/07/09 02:14:38;;;;;;;5.88;2.80;;;20.50;99.90;;;;;;5016181;28;20061;-78
2023/07/09 02:17:04;;;;;;;3.88;3.08;;;20.50;99.90;;;;;;5018282;28;20108;-77
2023/07/09 02:19:30;;;;;;;4.95;2.75;;;20.40;99.90;;;;;;5007900;28;20104;-78
2023/07/09 02:21:57;;;;;;;5.55;3.15;;;20.50;99.90;;;;;;5007253;28;20049;-78
2023/07/09 02:24:24;;;;;;;6.45;4.45;;;20.40;99.90;;;;;;5021199;28;20393;-78
2023/07/09 02:26:58;;;;;;;6.10;4.15;;;20.30;99.90;;;;;;5024131;28;20552;-78
2023/07/09 02:29:25;;;;;;;4.78;3.30;;;20.30;99.90;;;;;;5014567;28;20018;-78
2023/07/09 02:31:52;;;;;;;3.90;2.70;;;20.30;99.90;;;;;;5016541;28;20053;-78
2023/07/09 02:34:18;;;;;;;5.28;2.85;;;20.30;99.90;;;;;;5020393;28;20029;-78
2023/07/09 02:36:45;;;;;;;4.45;3.20;;;20.30;99.90;;;;;;5016806;28;20104;-78
2023/07/09 02:39:12;;;;;;;5.57;3.45;;;20.30;99.90;;;;;;5006193;28;20083;-78
2023/07/09 02:41:39;;;;;;;7.32;3.10;;;20.40;99.90;;;;;;5024759;28;20033;-79
2023/07/09 02:44:05;;;;;;;4.68;3.42;;;20.30;99.90;;;;;;5015229;28;20029;-79
2023/07/09 02:46:31;;;;;;;3.72;2.28;;;20.30;99.90;;;;;;5004001;28;20033;-79
2023/07/09 02:48:57;;;;;;;4.53;3.05;;;20.30;99.90;;;;;;5011495;28;20040;-78
2023/07/09 02:51:26;;;;;;;5.45;3.45;;;20.10;99.90;;;;;;4998069;28;20052;-79
2023/07/09 02:53:56;;;;;;;5.20;3.75;;;20.10;99.90;;;;;;5023166;28;20118;-78
2023/07/09 02:56:22;;;;;;;5.95;3.50;;;20.00;99.90;;;;;;5005059;28;20064;-78
2023/07/09 02:58:49;;;;;;;5.07;3.38;;;20.00;99.90;;;;;;5007906;28;20056;-78
2023/07/09 03:01:15;;;;;;;4.30;2.97;;;19.90;99.90;;;;;;5020337;28;20085;-77
2023/07/09 03:03:40;;;;;;;4.43;3.53;;;19.90;99.90;;;;;;5026210;28;20072;-78
2023/07/09 03:06:07;;;;;;;4.43;3.47;;;19.80;99.90;;;;;;5026622;28;20484;-78
2023/07/09 03:08:32;;;;;;;5.97;3.35;;;19.80;99.90;;;;;;5027225;28;20040;-79
2023/07/09 03:10:58;;;;;;;5.28;3.72;;;19.70;99.90;;;;;;5018440;28;20030;-78
2023/07/09 03:13:24;;;;;;;4.72;3.45;;;19.70;99.90;;;;;;5022934;28;20036;-78
2023/07/09 03:15:57;;;;;;;5.07;3.83;;;19.70;99.90;;;;;;5019680;28;20033;-78
2023/07/09 03:18:23;;;;;;;7.80;3.40;;;19.70;99.90;;;;;;5020687;28;20049;-78
2023/07/09 03:20:48;;;;;;;4.00;3.13;;;19.70;99.90;;;;;;5016752;28;20049;-78
2023/07/09 03:23:14;;;;;;;5.10;3.00;;;19.70;99.90;;;;;;5018126;28;20033;-78
2023/07/09 03:25:44;;;;;;;5.40;2.80;;;19.90;99.90;;;;;;5020280;28;20036;-78
2023/07/09 03:28:11;;;;;;;5.07;2.60;;;19.70;99.90;;;;;;5010470;28;20068;-78
2023/07/09 03:30:52;;;;;;;4.35;3.17;;;19.80;99.90;;;;;;5018006;28;20025;-78
2023/07/09 03:33:18;;;;;;;4.80;2.83;;;19.70;99.90;;;;;;5003178;28;20104;-78
2023/07/09 03:35:44;;;;;;;4.47;3.08;;;19.70;99.90;;;;;;5020670;28;20451;-78
2023/07/09 03:38:10;;;;;;;5.43;3.42;;;19.60;99.90;;;;;;5019213;28;20398;-78
2023/07/09 03:40:37;;;;;;;5.05;3.58;;;19.60;99.90;;;;;;5021107;28;20029;-78
2023/07/09 03:43:06;;;;;;;4.75;2.75;;;19.50;99.90;;;;;;5021175;28;20064;-78
2023/07/09 03:45:33;;;;;;;7.78;3.00;;;19.60;99.90;;;;;;5019002;28;20536;-78
2023/07/09 03:47:59;;;;;;;5.18;2.90;;;19.60;99.90;;;;;;5020110;28;20048;-78
2023/07/09 03:50:24;;;;;;;4.78;2.80;;;19.60;99.90;;;;;;5017635;28;20117;-78
2023/07/09 03:52:50;;;;;;;5.00;3.13;;;19.60;99.90;;;;;;5018780;28;20482;-78
2023/07/09 03:55:16;;;;;;;3.92;2.63;;;19.70;99.90;;;;;;5021137;28;20075;-78
2023/07/09 03:57:41;;;;;;;4.25;2.70;;;19.80;99.90;;;;;;5020973;28;20389;-78
2023/07/09 04:00:11;;;;;;;5.50;2.65;;;19.80;99.90;;;;;;5021850;28;20053;-78
2023/07/09 04:02:45;;;;;;;5.25;3.13;;;19.90;99.90;;;;;;5025125;28;20046;-78
2023/07/09 04:05:11;;;;;;;4.97;3.65;;;19.80;99.90;;;;;;5020789;28;20029;-78
2023/07/09 04:07:37;;;;;;;4.70;3.58;;;19.80;99.90;;;;;;5017528;28;20041;-78
2023/07/09 04:10:05;;;;;;;4.93;3.05;;;19.80;99.90;;;;;;5015090;28;20055;-78
2023/07/09 04:12:32;;;;;;;4.85;2.90;;;19.90;99.90;;;;;;5021404;28;20072;-78
2023/07/09 04:14:58;;;;;;;5.30;3.17;;;20.00;99.90;;;;;;5019563;28;20461;-78
2023/07/09 04:17:23;;;;;;;5.85;3.53;;;20.00;99.90;;;;;;5019193;28;20030;-78
2023/07/09 04:19:52;;;;;;;5.13;2.72;;;20.00;99.90;;;;;;5019417;28;20029;-79
2023/07/09 04:22:18;;;;;;;3.92;2.83;;;20.00;99.90;;;;;;5017065;28;20017;-78
2023/07/09 04:24:44;;;;;;;4.72;3.60;;;20.00;99.90;;;;;;5018932;28;20037;-78
2023/07/09 04:27:10;;;;;;;5.32;3.88;;;20.00;99.90;;;;;;5017710;28;20052;-79
2023/07/09 04:29:38;;;;;;;4.80;3.13;;;20.10;99.90;;;;;;5020858;28;20059;-78
2023/07/09 04:32:05;;;;;;;5.80;3.53;;;20.10;99.90;;;;;;5016213;28;20046;-78
2023/07/09 04:34:31;;;;;;;4.68;3.13;;;20.20;99.90;;;;;;5017133;28;20439;-78
2023/07/09 04:36:56;;;;;;;5.38;3.50;;;20.30;99.90;;;;;;5019003;28;20056;-78
2023/07/09 04:39:22;;;;;;;4.63;3.17;;;20.40;99.90;;;;;;5003477;28;20026;-79
2023/07/09 04:41:48;;;;;;;4.65;3.20;;;20.50;99.90;;;;;;5025434;28;20076;-78
2023/07/09 04:44:14;;;;;;;4.75;3.50;;;20.60;99.90;;;;;;5014468;28;20478;-78
2023/07/09 04:46:40;;;;;;;4.15;3.05;;;20.70;99.90;;;;;;5021662;28;20018;-78
2023/07/09 04:49:06;;;;;;;5.78;3.20;;;20.90;99.90;;;;;;5020777;28;20034;-79
2023/07/09 04:51:33;;;;;;;5.88;3.67;;;20.90;99.90;;;;;;5017688;28;21527;-78
2023/07/09 04:54:02;;;;;;;7.20;3.90;;;21.00;99.90;;;;;;5018426;28;20025;-78
2023/07/09 04:56:29;;;;;;;4.90;3.63;;;21.10;99.90;;;;;;5021729;28;20152;-78
2023/07/09 04:58:55;;;;;;;4.55;3.67;;;21.20;99.90;;;;;;5019356;28;20026;-79
2023/07/09 05:01:21;;;;;;;5.38;3.20;;;21.30;99.90;;;;;;5019384;28;20060;-78
2023/07/09 05:03:47;;;;;;;4.53;2.55;;;21.40;99.90;;;;;;5003445;28;20025;-79
2023/07/09 05:06:14;;;;;;;5.15;3.10;;;21.50;99.90;;;;;;5007125;28;20037;-78
2023/07/09 05:08:42;;;;;;;4.22;2.88;;;21.60;99.90;;;;;;5007549;28;20037;-78
2023/07/09 05:11:08;;;;;;;3.55;3.13;;;21.70;99.90;;;;;;5013761;28;20038;-78
2023/07/09 05:13:34;;;;;;;4.82;3.05;;;21.80;99.90;;;;;;5015735;28;20018;-79
2023/07/09 05:15:59;;;;;;;6.15;3.17;;;22.00;99.90;;;;;;5022096;28;20029;-78
2023/07/09 05:18:25;;;;;;;5.30;3.10;;;22.10;99.90;;;;;;5023339;28;20114;-79
2023/07/09 05:20:51;;;;;;;4.88;3.45;;;22.10;99.90;;;;;;5019991;28;20054;-79
2023/07/09 05:23:18;;;;;;;6.00;3.70;;;22.10;99.90;;;;;;5023241;28;20061;-78
2023/07/09 05:25:44;;;;;;;5.63;2.88;;;22.20;99.90;;;;;;5021143;28;20378;-79
2023/07/09 05:28:10;;;;;;;4.10;3.15;;;22.30;99.90;;;;;;5014970;28;20026;-78
2023/07/09 05:30:35;;;;;;;5.85;3.03;;;22.40;99.90;;;;;;4999950;28;20509;-79
2023/07/09 05:33:01;;;;;;;5.57;3.20;;;22.60;99.90;;;;;;5011388;28;20025;-79
2023/07/09 05:35:27;;;;;;;5.63;3.60;;;22.70;99.90;;;;;;5025441;28;20544;-79
2023/07/09 05:37:54;;;;;;;5.40;2.85;;;22.80;99.90;;;;;;5022411;28;20047;-79
2023/07/09 05:40:21;;;;;;;5.22;3.22;;;22.90;99.90;;;;;;5001014;28;20032;-79
2023/07/09 05:42:48;;;;;;;5.07;2.78;;;23.00;99.90;;;;;;5018367;28;20075;-79
2023/07/09 05:45:15;;;;;;;5.22;2.90;;;23.00;99.90;;;;;;4999955;28;20490;-79
2023/07/09 05:47:40;;;;;;;4.20;3.20;;;23.20;99.90;;;;;;5017251;28;20121;-79
2023/07/09 05:50:07;;;;;;;6.35;3.63;;;23.30;99.90;;;;;;5000906;28;20128;-79
2023/07/09 05:52:32;;;;;;;5.93;3.72;;;23.30;99.90;;;;;;5023867;28;20025;-79
2023/07/09 05:54:59;;;;;;;3.90;2.75;;;23.50;99.90;;;;;;5024401;28;20061;-79
2023/07/09 05:57:25;;;;;;;4.05;3.08;;;23.70;99.90;;;;;;5007404;28;20474;-79
2023/07/09 05:59:51;;;;;;;6.30;2.75;;;23.80;99.90;;;;;;5016328;28;20022;-79
2023/07/09 06:02:19;;;;;;;5.22;2.78;;;24.00;99.90;;;;;;5006892;28;20446;-80
2023/07/09 06:04:46;;;;;;;3.78;2.70;;;24.20;99.90;;;;;;5013908;28;20064;-79
2023/07/09 06:07:13;;;;;;;4.70;2.97;;;24.40;99.90;;;;;;5021317;28;20132;-80
2023/07/09 06:09:39;;;;;;;5.05;3.45;;;24.50;99.90;;;;;;5014550;28;20052;-79
2023/07/09 06:12:06;;;;;;;6.00;3.45;;;24.50;99.90;;;;;;5019027;28;20083;-79
2023/07/09 06:14:32;;;;;;;5.97;3.08;;;24.70;99.90;;;;;;5015892;28;20120;-80
2023/07/09 06:16:59;;;;;;;4.88;2.92;;;24.80;99.90;;;;;;5019343;28;20109;-79
2023/07/09 06:19:25;;;;;;;3.45;2.47;;;24.90;99.90;;;;;;5018088;28;20364;-79
2023/07/09 06:21:51;;;;;;;5.28;2.65;;;25.00;99.90;;;;;;5020514;28;20324;-79
2023/07/09 06:24:17;;;;;;;5.07;2.70;;;25.10;99.90;;;;;;5031326;28;20041;-79
2023/07/09 06:26:43;;;;;;;6.65;2.95;;;25.20;99.90;;;;;;5012447;28;20033;-79
2023/07/09 06:29:08;;;;;;;4.47;2.85;;;25.30;99.90;;;;;;5011443;28;20363;-79
2023/07/09 06:31:36;;;;;;;3.97;2.38;;;25.40;99.90;;;;;;5018567;28;20038;-80
2023/07/09 06:34:01;;;;;;;5.03;2.50;;;25.60;99.90;;;;;;5020639;28;20105;-80
2023/07/09 06:36:27;;;;;;;5.07;2.67;;;25.80;99.90;;;;;;5021048;28;20045;-79
2023/07/09 06:38:53;;;;;;;5.07;3.42;;;25.90;99.90;;;;;;5019884;28;20108;-79
2023/07/09 06:41:19;;;;;;;4.13;2.40;;;26.00;99.90;;;;;;5018460;28;20045;-80
2023/07/09 06:43:45;;;;;;;5.55;2.97;;;26.10;99.90;;;;;;5018102;28;20075;-79
2023/07/09 06:46:13;;;;;;;3.35;2.35;;;26.20;99.90;;;;;;5016278;28;20108;-79
2023/07/09 06:48:38;;;;;;;3.55;2.65;;;26.40;99.90;;;;;;5019758;28;20030;-79
2023/07/09 06:51:04;;;;;;;4.80;2.95;;;26.40;99.90;;;;;;5016940;28;20052;-79
2023/07/09 06:53:30;;;;;;;3.63;2.70;;;26.60;99.90;;;;;;5018348;28;20049;-79
2023/07/09 06:55:58;;;;;;;4.00;2.65;;;26.70;99.90;;;;;;5015043;28;20055;-80
2023/07/09 06:58:27;;;;;;;4.20;2.50;;;26.70;99.90;;;;;;5013312;28;20034;-79
2023/07/09 07:00:54;;;;;;;4.97;2.35;;;26.80;99.90;;;;;;5016482;28;20021;-79
2023/07/09 07:03:21;;;;;;;4.00;2.38;;;26.60;99.90;;;;;;5017211;28;20510;-79
2023/07/09 07:05:53;;;;;;;4.85;2.28;;;26.80;99.90;;;;;;5013870;28;20670;-80
2023/07/09 07:08:21;;;;;;;5.97;3.28;;;27.10;99.90;;;;;;5011787;28;20026;-79
2023/07/09 07:10:58;;;;;;;3.92;2.83;;;27.30;99.90;;;;;;5001725;28;20045;-79
2023/07/09 07:13:24;;;;;;;4.50;2.08;;;27.40;99.90;;;;;;5000892;28;20034;-79
2023/07/09 07:15:49;;;;;;;3.78;2.10;;;27.50;99.90;;;;;;5012746;28;20121;-80
2023/07/09 07:18:15;;;;;;;5.30;2.42;;;27.80;99.90;;;;;;5012801;28;20028;-79
2023/07/09 07:20:41;;;;;;;4.82;2.35;;;28.00;99.90;;;;;;5013338;28;20334;-79
2023/07/09 07:23:06;;;;;;;9.57;3.58;;;28.00;99.90;;;;;;5003508;28;20026;-79
2023/07/09 07:25:33;;;;;;;4.30;2.88;;;28.20;99.90;;;;;;5016939;28;20116;-80
2023/07/09 07:27:58;;;;;;;9.30;3.40;;;28.30;99.90;;;;;;5014571;28;20077;-80
2023/07/09 07:30:24;;;;;;;3.95;2.90;;;28.40;99.90;;;;;;5013790;28;20041;-80
2023/07/09 07:32:50;;;;;;;4.95;2.53;;;28.40;99.90;;;;;;5011533;28;20025;-79
2023/07/09 07:35:17;;;;;;;4.75;2.65;;;28.50;99.90;;;;;;5005262;28;20486;-79
2023/07/09 07:37:43;;;;;;;3.65;2.80;;;28.70;99.90;;;;;;5016471;28;20071;-79
2023/07/09 07:40:10;;;;;;;4.63;2.50;;;28.90;99.90;;;;;;5013546;28;20063;-79
2023/07/09 07:42:36;;;;;;;4.03;2.38;;;29.00;99.90;;;;;;5001678;28;20037;-80
2023/07/09 07:45:03;;;;;;;4.43;2.38;;;29.10;99.90;;;;;;5011978;28;20025;-80
2023/07/09 07:47:30;;;;;;;4.80;2.80;;;29.40;99.90;;;;;;5013567;28;20087;-80
2023/07/09 07:49:56;;;;;;;9.75;2.20;;;29.50;99.90;;;;;;5012681;28;20021;-80
2023/07/09 07:52:23;;;;;;;4.75;2.55;;;29.60;99.90;;;;;;5015279;28;20041;-80
2023/07/09 07:54:49;;;;;;;3.33;2.08;;;29.60;99.90;;;;;;5011836;28;20034;-80
2023/07/09 07:57:15;;;;;;;3.72;2.45;;;29.50;99.90;;;;;;5019954;28;20030;-80
2023/07/09 07:59:41;;;;;;;5.68;2.75;;;29.70;99.90;;;;;;5020061;28;20056;-80
2023/07/09 08:02:11;;;;;;;4.57;2.78;;;29.70;99.90;;;;;;5014387;28;20486;-80
2023/07/09 08:04:38;;;;;;;4.53;2.08;;;29.90;99.90;;;;;;5012243;28;20026;-81
2023/07/09 08:07:04;;;;;;;3.80;2.53;;;29.90;99.90;;;;;;5020158;28;20492;-80
2023/07/09 08:09:32;;;;;;;4.85;3.03;;;30.10;99.90;;;;;;5012118;28;20394;-80
2023/07/09 08:12:00;;;;;;;4.47;2.25;;;29.90;99.90;;;;;;5018163;28;20133;-80
2023/07/09 08:14:26;;;;;;;3.95;2.65;;;30.40;99.90;;;;;;5012689;28;20548;-81
2023/07/09 08:16:52;;;;;;;6.32;2.47;;;30.50;99.90;;;;;;5014782;28;20129;-81
2023/07/09 08:19:21;;;;;;;3.35;2.20;;;30.60;99.90;;;;;;5013217;28;20029;-80
2023/07/09 08:21:46;;;;;;;3.63;2.40;;;30.60;99.90;;;;;;5011042;28;20030;-80
2023/07/09 08:24:14;;;;;;;3.97;2.47;;;30.70;99.90;;;;;;5011427;28;20025;-81
2023/07/09 08:26:40;;;;;;;5.28;2.17;;;30.80;99.90;;;;;;5015840;28;20479;-79
2023/07/09 08:29:05;;;;;;;4.05;2.33;;;30.90;99.90;;;;;;5018350;28;20033;-80
2023/07/09 08:31:31;;;;;;;6.53;3.00;;;31.10;99.90;;;;;;5011949;28;20065;-80
2023/07/09 08:33:57;;;;;;;3.30;2.35;;;31.10;99.90;;;;;;5014556;28;20029;-80
2023/07/09 08:36:23;;;;;;;3.95;2.75;;;31.20;99.90;;;;;;5018189;28;20125;-80
2023/07/09 08:38:49;;;;;;;3.13;2.08;;;31.40;99.90;;;;;;5013361;28;20053;-79
2023/07/09 08:41:35;;;;;;;2.60;2.10;;;31.30;99.90;;;;;;5001765;28;20466;-80
2023/07/09 08:44:09;;;;;;;3.22;2.05;;;31.40;99.90;;;;;;5015265;28;20026;-80
2023/07/09 08:47:14;;;;;;;3.35;2.25;;;31.60;99.90;;;;;;5015971;28;20045;-80
2023/07/09 08:49:45;;;;;;;3.83;2.38;;;31.80;99.90;;;;;;4978771;28;20037;-80
2023/07/09 08:52:22;;;;;;;4.13;2.65;;;31.70;99.90;;;;;;5026361;28;20524;-80
2023/07/09 08:54:51;;;;;;;2.70;2.03;;;31.70;99.90;;;;;;5029721;28;20034;-80
2023/07/09 08:57:23;;;;;;;3.17;2.28;;;31.80;99.90;;;;;;5011218;28;20498;-80
2023/07/09 08:59:53;;;;;;;3.42;2.10;;;32.20;99.90;;;;;;5020108;28;20028;-80
2023/07/09 09:03:05;;;;;;;3.78;2.05;;;32.40;99.90;;;;;;4995684;28;20414;-80
2023/07/09 09:05:33;;;;;;;4.00;2.67;;;32.40;99.90;;;;;;5010791;28;20088;-80
2023/07/09 09:08:17;;;;;;;3.00;2.10;;;32.30;99.90;;;;;;5016709;28;20041;-80
2023/07/09 09:10:48;;;;;;;3.90;2.17;;;32.50;99.90;;;;;;5012384;28;20051;-80
2023/07/09 09:13:18;;;;;;;4.57;2.20;;;32.90;99.90;;;;;;5015538;28;20029;-80
2023/07/09 09:15:46;;;;;;;3.17;2.25;;;32.80;99.90;;;;;;5018977;28;20025;-81
2023/07/09 09:18:20;;;;;;;3.73;2.40;;;32.80;99.90;;;;;;5010552;28;20064;-81
2023/07/09 09:20:52;;;;;;;4.05;2.42;;;32.90;99.90;;;;;;5008919;28;20095;-80
2023/07/09 09:23:18;;;;;;;3.22;2.08;;;32.70;99.90;;;;;;5011911;28;20051;-81
2023/07/09 09:25:55;;;;;;;5.13;2.45;;;32.60;99.90;;;;;;5015994;28;20025;-81
2023/07/09 09:28:22;;;;;;;4.25;1.85;;;32.90;99.90;;;;;;5010669;28;20025;-81
2023/07/09 09:30:48;;;;;;;3.50;2.10;;;33.00;99.90;;;;;;5013144;28;20025;-80
2023/07/09 09:33:18;;;;;;;3.08;1.90;;;33.10;99.90;;;;;;5010574;28;20506;-81
2023/07/09 09:35:45;;;;;;;4.30;2.30;;;33.10;99.90;;;;;;5009251;28;20044;-80
2023/07/09 09:38:21;;;;;;;3.95;2.55;;;33.30;99.90;;;;;;5012912;28;20402;-81
2023/07/09 09:40:47;;;;;;;5.05;2.35;;;33.40;99.90;;;;;;5018944;28;20723;-81
2023/07/09 09:43:19;;;;;;;3.13;2.08;;;33.50;99.90;;;;;;5012735;28;20463;-82
2023/07/09 09:45:48;;;;;;;4.82;2.15;;;33.30;99.90;;;;;;4997725;28;20062;-82
2023/07/09 09:48:20;;;;;;;3.00;1.88;;;33.30;99.90;;;;;;5012628;28;20037;-81
2023/07/09 09:50:47;;;;;;;2.78;1.67;;;33.40;99.90;;;;;;5010611;28;20107;-81
2023/07/09 09:53:24;;;;;;;3.78;1.98;;;33.30;99.90;;;;;;5013187;28;20030;-81
2023/07/09 09:55:53;;;;;;;2.75;1.55;;;33.40;99.90;;;;;;5008097;28;20123;-81
2023/07/09 09:58:19;;;;;;;4.03;1.92;;;33.50;99.90;;;;;;5015526;28;20040;-81
2023/07/09 10:00:55;;;;;;;2.60;1.60;;;33.80;99.90;;;;;;5019723;28;20041;-81
2023/07/09 10:03:21;;;;;;;4.90;1.58;;;33.50;99.90;;;;;;5015544;28;20041;-82
2023/07/09 10:05:56;;;;;;;3.63;1.23;;;33.70;99.90;;;;;;5015096;28;20029;-81
2023/07/09 10:08:34;;;;;;;3.10;1.40;;;34.30;99.90;;;;;;5019932;28;20033;-81
2023/07/09 10:11:27;;;;;;;3.15;1.17;;;33.80;99.90;;;;;;5013935;28;20146;-81
2023/07/09 10:13:56;;;;;;;2.42;1.35;;;34.00;99.90;;;;;;5014776;28;20124;-81
2023/07/09 10:16:35;;;;;;;1.90;0.95;;;33.70;99.90;;;;;;5015408;28;20032;-82
2023/07/09 10:19:04;;;;;;;2.67;1.50;;;33.90;99.90;;;;;;5014307;28;20022;-81
2023/07/09 10:21:38;;;;;;;2.38;1.08;;;34.30;99.90;;;;;;5012728;28;20088;-81
2023/07/09 10:24:14;;;;;;;4.20;0.98;;;33.80;99.90;;;;;;5014548;28;20033;-81
2023/07/09 10:26:49;;;;;;;1.70;0.80;;;33.80;99.90;;;;;;5016329;28;20508;-81
2023/07/09 10:29:31;;;;;;;1.70;0.80;;;34.40;99.90;;;;;;4999009;28;20025;-81
2023/07/09 10:32:39;;;;;;;2.17;0.98;;;34.80;99.90;;;;;;5014396;28;20474;-81
2023/07/09 10:35:14;;;;;;;2.78;0.80;;;34.60;99.90;;;;;;5016772;28;20044;-82
2023/07/09 10:38:11;;;;;;;2.15;0.70;;;34.90;99.90;;;;;;5015493;28;20426;-81
2023/07/09 10:40:43;;;;;;;1.77;0.70;;;35.00;99.90;;;;;;5014822;28;20072;-81
2023/07/09 10:43:18;;;;;;;1.45;0.80;;;35.10;99.90;;;;;;5015463;28;20038;-82
2023/07/09 10:45:53;;;;;;;2.30;0.68;;;34.50;99.90;;;;;;5015954;28;20382;-81
2023/07/09 10:48:28;;;;;;;3.15;0.80;;;34.40;99.90;;;;;;4997355;28;20032;-81
2023/07/09 10:50:54;;;;;;;2.30;0.90;;;34.30;99.90;;;;;;5016184;28;20080;-81
2023/07/09 10:53:40;;;;;;;2.10;1.02;;;34.40;99.90;;;;;;5018647;28;20064;-81
2023/07/09 10:56:12;;;;;;;3.03;0.82;;;34.20;99.90;;;;;;5016487;28;20034;-81
2023/07/09 10:58:56;;;;;;;2.63;0.70;;;34.50;99.90;;;;;;5020892;28;20303;-81
2023/07/09 11:01:43;;;;;;;2.60;0.73;;;34.70;99.90;;;;;;5013556;28;20099;-81
2023/07/09 11:04:25;;;;;;;2.67;0.70;;;35.20;99.40;;;;;;5029891;28;20037;-81
2023/07/09 11:06:55;;;;;;;2.75;0.80;;;35.20;99.90;;;;;;5013907;28;20259;-81
2023/07/09 11:09:49;;;;;;;1.65;0.73;;;34.60;99.90;;;;;;5017686;28;20034;-82
2023/07/09 11:12:27;;;;;;;1.63;0.90;;;34.70;99.90;;;;;;5012765;28;20113;-81
2023/07/09 11:14:58;;;;;;;;;;;34.50;99.90;;;;;;5014939;28;20029;-82
2023/07/09 11:17:27;;;;;;;5.57;1.10;;;35.00;99.90;;;;;;5019864;28;20380;-81
2023/07/09 11:19:57;;;;;;;1.55;0.60;;;34.40;99.90;;;;;;5003658;28;20022;-82
2023/07/09 11:22:45;;;;;;;2.45;0.82;;;35.00;99.90;;;;;;5013712;28;20037;-81
2023/07/09 11:25:14;;;;;;;3.45;0.70;;;34.80;99.90;;;;;;5013472;28;20046;-82
2023/07/09 11:27:51;;;;;;;3.00;0.68;;;35.30;99.60;;;;;;5018722;28;20482;-81
2023/07/09 11:30:28;;;;;;;1.98;0.70;;;35.30;99.20;;;;;;5013825;28;20037;-81
2023/07/09 11:33:05;;;;;;;2.25;0.60;;;35.20;99.50;;;;;;5018373;28;20427;-82
2023/07/09 11:35:52;;;;;;;2.38;0.90;;;35.30;99.10;;;;;;5012129;28;20116;-82
2023/07/09 11:38:21;;;;;;;2.10;0.60;;;35.10;99.70;;;;;;5014255;28;20021;-82
2023/07/09 11:40:47;;;;;;;;;;;35.10;99.90;;;;;;5014546;28;20408;-82
2023/07/09 11:43:46;;;;;;;2.20;0.85;;;35.10;99.90;;;;;;5013439;28;19909;-82
2023/07/09 11:46:18;;;;;;;2.25;1.00;;;34.80;99.90;;;;;;5012261;28;20069;-82
2023/07/09 11:48:45;;;;;;;2.33;0.80;;;35.30;99.90;;;;;;5012845;28;20040;-81
2023/07/09 11:51:26;;;;;;;2.65;0.80;;;34.50;99.90;;;;;;5008883;28;20037;-81
2023/07/09 11:53:55;;;;;;;2.65;0.80;;;34.80;99.90;;;;;;5003281;28;20029;-81
2023/07/09 11:56:23;;;;;;;1.90;0.93;;;34.90;99.90;;;;;;5010987;28;20072;-80
2023/07/09 11:58:51;;;;;;;3.67;0.80;;;34.90;99.90;;;;;;5010864;28;20655;-81
2023/07/09 12:01:20;;;;;;;2.42;0.70;;;35.10;99.80;;;;;;5011939;28;21271;-81
2023/07/09 12:03:47;;;;;;;2.50;0.70;;;35.10;99.20;;;;;;5008318;28;20505;-81
2023/07/09 12:06:24;;;;;;;2.47;0.93;;;34.60;99.90;;;;;;5007666;28;20107;-81
2023/07/09 12:08:51;;;;;;;2.95;0.90;;;34.00;99.90;;;;;;5007121;28;20391;-81
2023/07/09 12:11:25;;;;;;;3.53;0.88;;;34.30;99.90;;;;;;5008908;28;20033;-82
2023/07/09 12:13:52;;;;;;;3.70;1.00;;;34.40;99.90;;;;;;5007073;28;20509;-81
2023/07/09 12:16:29;;;;;;;2.40;0.70;;;34.10;99.90;;;;;;5008108;28;20040;-81
2023/07/09 12:18:55;;;;;;;1.70;0.70;;;34.50;99.90;;;;;;5008663;28;20026;-81
2023/07/09 12:21:23;;;;;;;3.75;0.90;;;34.80;99.90;;;;;;5021201;28;20034;-81
2023/07/09 12:23:49;;;;;;;3.40;0.60;;;34.50;99.90;;;;;;5007319;28;20063;-81
2023/07/09 12:26:18;;;;;;;1.60;0.70;;;34.30;99.90;;;;;;5005557;28;20118;-81
2023/07/09 12:28:50;;;;;;;3.00;0.60;;;34.80;99.80;;;;;;5009992;28;20042;-81
2023/07/09 12:31:17;;;;;;;2.47;0.77;;;34.60;99.90;;;;;;5024579;28;20065;-82
2023/07/09 12:33:51;;;;;;;2.35;0.73;;;34.40;99.90;;;;;;5009197;28;20029;-80
2023/07/09 12:36:18;;;;;;;2.40;0.70;;;34.20;99.90;;;;;;5007850;28;20059;-81
2023/07/09 12:38:50;;;;;;;1.90;0.80;;;34.40;99.90;;;;;;5009656;28;20182;-81
2023/07/09 12:41:25;;;;;;;3.25;0.73;;;34.00;99.90;;;;;;5009661;28;20091;-81
2023/07/09 12:43:54;;;;;;;1.60;0.85;;;33.90;99.90;;;;;;5009327;28;20021;-82
2023/07/09 12:46:24;;;;;;;2.22;0.80;;;33.70;99.90;;;;;;5008437;28;20038;-81
2023/07/09 12:48:52;;;;;;;2.42;0.93;;;33.70;99.90;;;;;;5007328;28;20856;-81
2023/07/09 12:51:28;;;;;;;1.80;0.80;;;33.60;99.90;;;;;;4990416;28;20523;-82
2023/07/09 12:54:15;;;;;;;2.13;0.80;;;33.80;99.90;;;;;;5009570;28;20048;-82
2023/07/09 12:56:41;;;;;;;2.03;1.00;;;33.40;99.90;;;;;;5007585;28;20065;-80
2023/07/09 12:59:22;;;;;;;1.73;0.80;;;33.90;99.90;;;;;;5007611;28;20439;-81